Time;durP1;ratioP1;P1;durP2;ratioP2;P2;SDS_P1;SDS_P2;PMS_P1;PMS_P2;Temp;Humidity;BMP_temperature;BMP_pressure;BME280_temperature;BME280_humidity;BME280_pressure;Samples;Min_cycle;Max_cycle;Signal;HPM_P1;HPM_P2
2023/09/03 00:01:45;;;;;;;5.82;1.52;;;;;;;19.32;100.00;100452.25;12205830;19;20379;-85
2023/09/03 00:05:56;;;;;;;6.38;1.20;;;;;;;19.27;100.00;100441.09;12208114;19;20021;-85
2023/09/03 00:09:58;;;;;;;3.15;1.30;;;;;;;19.20;100.00;100449.84;12182753;19;20010;-85
2023/09/03 00:14:00;;;;;;;3.50;1.13;;;;;;;19.13;100.00;100443.75;12203758;19;20003;-85
2023/09/03 00:18:03;;;;;;;3.40;1.30;;;;;;;19.02;100.00;100451.38;12181776;19;20007;-85
2023/09/03 00:22:05;;;;;;;6.57;1.63;;;;;;;18.94;100.00;100451.97;12201832;19;20098;-86
2023/09/03 00:26:17;;;;;;;3.93;1.50;;;;;;;18.87;100.00;100457.91;12236788;19;20079;-82
2023/09/03 00:30:24;;;;;;;4.65;1.40;;;;;;;18.81;100.00;100467.44;12237787;19;20002;-83
2023/09/03 00:34:26;;;;;;;1.70;1.23;;;;;;;18.71;100.00;100464.69;12257454;19;20018;-83
2023/09/03 00:38:28;;;;;;;4.35;1.45;;;;;;;18.61;100.00;100476.72;12224073;19;20006;-83
2023/09/03 00:42:30;;;;;;;3.60;1.57;;;;;;;18.53;100.00;100471.75;12178213;19;20007;-84
2023/09/03 00:46:31;;;;;;;6.18;1.85;;;;;;;18.48;100.00;100468.97;12192097;19;20011;-85
2023/09/03 00:50:33;;;;;;;4.47;2.23;;;;;;;18.46;100.00;100468.44;12190531;19;20864;-84
2023/09/03 00:54:36;;;;;;;8.70;1.70;;;;;;;18.45;100.00;100473.19;12170776;19;20026;-85
2023/09/03 00:58:47;;;;;;;9.50;2.20;;;;;;;18.47;100.00;100467.28;12200689;19;20002;-85
2023/09/03 01:02:49;;;;;;;9.63;2.33;;;;;;;18.48;100.00;100465.38;12205039;19;20010;-86
2023/09/03 01:06:51;;;;;;;7.47;2.15;;;;;;;18.44;100.00;100456.72;12179818;19;20019;-85
2023/09/03 01:11:23;;;;;;;7.53;2.15;;;;;;;18.46;100.00;100457.25;12196689;19;20738;-86
2023/09/03 01:15:29;;;;;;;4.97;1.83;;;;;;;18.40;100.00;100456.44;12186491;19;20081;-84
2023/09/03 01:20:05;;;;;;;4.72;1.80;;;;;;;18.36;100.00;100460.13;12212657;19;20014;-84
2023/09/03 01:24:44;;;;;;;4.65;2.10;;;;;;;18.30;100.00;100444.53;12194642;19;20058;-85
2023/09/03 01:28:47;;;;;;;6.18;2.10;;;;;;;18.27;100.00;100456.25;12213434;19;20014;-86
2023/09/03 01:32:51;;;;;;;4.30;2.03;;;;;;;18.21;100.00;100458.22;12215191;19;20343;-83
2023/09/03 01:36:54;;;;;;;7.50;1.80;;;;;;;18.15;100.00;100465.78;12189457;19;20039;-84
2023/09/03 01:40:59;;;;;;;5.95;2.15;;;;;;;18.09;100.00;100460.50;12208068;19;20014;-84
2023/09/03 01:45:01;;;;;;;6.03;2.10;;;;;;;18.04;100.00;100464.13;12188766;19;20015;-84
2023/09/03 01:49:12;;;;;;;10.65;2.40;;;;;;;17.99;100.00;100464.13;12208002;19;20029;-85
2023/09/03 01:53:25;;;;;;;8.93;2.30;;;;;;;17.97;100.00;100469.19;12211988;19;20010;-83
2023/09/03 01:57:34;;;;;;;7.18;2.25;;;;;;;17.85;100.00;100472.28;12189384;19;20014;-84
2023/09/03 02:01:38;;;;;;;7.90;2.50;;;;;;;17.83;100.00;100477.28;12213330;19;20011;-84
2023/09/03 02:05:40;;;;;;;9.98;2.65;;;;;;;17.81;100.00;100495.41;12211210;19;20007;-84
2023/09/03 02:09:42;;;;;;;5.57;2.05;;;;;;;17.81;100.00;100495.41;12189512;19;20556;-84
2023/09/03 02:13:44;;;;;;;8.20;3.00;;;;;;;17.79;100.00;100504.06;12206225;19;20007;-83
2023/09/03 02:17:46;;;;;;;10.43;2.47;;;;;;;17.75;100.00;100502.91;12203715;19;20010;-85
2023/09/03 02:21:48;;;;;;;8.85;2.78;;;;;;;17.75;100.00;100508.47;12182841;19;20440;-84
2023/09/03 02:31:02;;;;;;;10.48;2.63;;;;;;;17.79;100.00;100509.66;12190006;19;20409;-84
2023/09/03 02:35:05;;;;;;;10.75;3.10;;;;;;;17.84;100.00;100522.72;12213381;19;20095;-84
2023/09/03 02:39:07;;;;;;;10.43;3.15;;;;;;;17.87;100.00;100524.94;12197753;19;20014;-86
2023/09/03 02:43:12;;;;;;;4.63;2.65;;;;;;;17.94;100.00;100533.88;12218178;19;20017;-86
2023/09/03 02:47:13;;;;;;;4.90;2.95;;;;;;;17.96;100.00;100542.78;12208689;19;20011;-84
2023/09/03 02:51:19;;;;;;;7.03;2.90;;;;;;;18.00;100.00;100543.91;12185436;19;20502;-83
2023/09/03 02:55:21;;;;;;;6.33;3.60;;;;;;;18.06;100.00;100542.78;12202120;19;19998;-84
2023/09/03 02:59:23;;;;;;;4.85;2.78;;;;;;;18.13;100.00;100542.47;12211678;19;20360;-85
2023/09/03 03:03:25;;;;;;;6.25;3.17;;;;;;;18.13;100.00;100529.38;12184898;19;20473;-85
2023/09/03 03:07:26;;;;;;;6.50;3.10;;;;;;;18.17;100.00;100538.84;12202260;19;20011;-85
2023/09/03 03:11:28;;;;;;;8.20;3.27;;;;;;;18.22;100.00;100538.00;12205479;19;20006;-86
2023/09/03 03:15:34;;;;;;;7.30;3.10;;;;;;;18.28;100.00;100541.59;12185339;19;20524;-84
2023/09/03 03:19:37;;;;;;;6.35;3.17;;;;;;;18.31;100.00;100538.25;12213327;19;20871;-84
2023/09/03 03:23:40;;;;;;;8.07;3.33;;;;;;;18.25;100.00;100540.22;12202104;19;20474;-84
2023/09/03 03:27:43;;;;;;;5.85;2.70;;;;;;;18.25;100.00;100544.97;12179479;19;20762;-84
2023/09/03 03:31:45;;;;;;;6.33;3.13;;;;;;;18.21;100.00;100548.31;12200450;19;20492;-85
2023/09/03 03:35:48;;;;;;;5.47;3.40;;;;;;;18.20;100.00;100549.44;12197674;19;20007;-83
2023/09/03 03:39:52;;;;;;;5.30;3.20;;;;;;;18.16;100.00;100553.91;12170062;19;20011;-84
2023/09/03 03:43:55;;;;;;;4.90;3.40;;;;;;;18.12;100.00;100560.34;12192519;19;20098;-83
2023/09/03 03:48:00;;;;;;;6.32;3.30;;;;;;;18.06;100.00;100547.53;12193334;19;20038;-84
2023/09/03 03:52:03;;;;;;;7.32;3.50;;;;;;;18.04;100.00;100553.38;12170809;19;20366;-82
2023/09/03 03:56:09;;;;;;;9.05;3.95;;;;;;;18.05;100.00;100549.44;12190472;19;20046;-84
2023/09/03 04:00:11;;;;;;;6.20;3.53;;;;;;;18.01;100.00;100559.50;12173997;19;20017;-82
2023/09/03 04:04:13;;;;;;;6.65;3.92;;;;;;;18.00;100.00;100563.44;12191882;19;20034;-83
2023/09/03 04:08:15;;;;;;;6.97;4.40;;;;;;;18.00;100.00;100563.44;12192313;19;20018;-83
2023/09/03 04:12:17;;;;;;;8.77;4.03;;;;;;;18.02;100.00;100574.28;12170873;19;20007;-85
2023/09/03 04:16:20;;;;;;;9.63;4.15;;;;;;;18.04;100.00;100588.78;12189029;19;20002;-83
2023/09/03 04:20:23;;;;;;;8.05;4.38;;;;;;;18.02;100.00;100591.84;12195232;19;20006;-83
2023/09/03 04:24:25;;;;;;;9.27;4.75;;;;;;;18.03;100.00;100604.69;12176764;19;20004;-85
2023/09/03 04:28:27;;;;;;;9.77;5.30;;;;;;;18.03;100.00;100609.44;12194170;19;20003;-84
2023/09/03 04:32:29;;;;;;;10.70;5.50;;;;;;;18.03;100.00;100598.28;12197896;19;20129;-84
2023/09/03 04:36:33;;;;;;;7.50;4.65;;;;;;;18.03;100.00;100601.91;12177576;19;20010;-84
2023/09/03 04:40:37;;;;;;;5.78;3.83;;;;;;;18.06;100.00;100606.09;12195513;19;20011;-84
2023/09/03 04:44:42;;;;;;;10.30;3.95;;;;;;;18.07;100.00;100599.38;12201188;19;20369;-85
2023/09/03 04:48:43;;;;;;;7.20;4.13;;;;;;;18.09;100.00;100599.94;12185484;19;20102;-84
2023/09/03 04:52:45;;;;;;;9.57;4.13;;;;;;;18.01;100.00;100592.97;12213202;19;20014;-83
2023/09/03 04:56:48;;;;;;;9.32;4.40;;;;;;;17.96;100.00;100598.53;12213045;19;20014;-84
2023/09/03 05:00:51;;;;;;;8.48;3.97;;;;;;;17.90;100.00;100605.25;12191087;19;20078;-84
2023/09/03 05:04:53;;;;;;;7.03;4.05;;;;;;;17.87;100.00;100601.06;12212552;19;20911;-84
2023/09/03 05:08:55;;;;;;;8.33;3.87;;;;;;;17.83;100.00;100604.69;12212625;19;20015;-84
2023/09/03 05:12:58;;;;;;;7.32;4.32;;;;;;;17.86;100.00;100618.91;12190030;19;20011;-81
2023/09/03 05:17:00;;;;;;;6.65;4.53;;;;;;;17.90;100.00;100628.38;12234204;19;20003;-81
2023/09/03 05:21:09;;;;;;;6.38;4.18;;;;;;;17.91;100.00;100627.28;12219774;19;20011;-83
2023/09/03 05:25:11;;;;;;;8.38;4.25;;;;;;;17.93;100.00;100632.56;12191451;19;20069;-85
2023/09/03 05:29:13;;;;;;;8.55;4.45;;;;;;;17.97;100.00;100644.84;12214659;19;20010;-85
2023/09/03 05:33:15;;;;;;;7.27;4.30;;;;;;;18.01;100.00;100647.91;12190017;19;20024;-82
2023/09/03 05:37:18;;;;;;;6.70;4.30;;;;;;;18.05;100.00;100641.47;12219290;19;20051;-83
2023/09/03 05:41:21;;;;;;;6.77;4.10;;;;;;;18.08;100.00;100645.66;12214837;19;20085;-83
2023/09/03 05:45:23;;;;;;;10.25;4.75;;;;;;;18.11;100.00;100657.09;12190209;19;20010;-82
2023/09/03 05:49:25;;;;;;;8.97;4.43;;;;;;;18.17;100.00;100660.72;12208497;19;20020;-83
2023/09/03 05:53:27;;;;;;;10.20;5.60;;;;;;;18.22;100.00;100664.34;12214881;19;20857;-82
2023/09/03 05:57:29;;;;;;;7.68;4.55;;;;;;;18.29;100.00;100678.00;12189905;19;20592;-82
2023/09/03 06:01:34;;;;;;;8.23;4.55;;;;;;;18.39;100.00;100680.81;12210886;19;20007;-82
2023/09/03 06:05:36;;;;;;;7.60;4.88;;;;;;;18.51;100.00;100676.88;12212199;19;20022;-82
2023/09/03 06:09:38;;;;;;;9.93;5.83;;;;;;;18.59;100.00;100677.16;12181163;19;20046;-82
2023/09/03 06:13:40;;;;;;;11.83;5.70;;;;;;;18.68;100.00;100683.00;12206315;19;20011;-82
2023/09/03 06:17:42;;;;;;;12.23;6.10;;;;;;;18.74;100.00;100703.38;12206975;19;20027;-82
2023/09/03 06:21:44;;;;;;;8.30;5.97;;;;;;;18.81;100.00;100709.53;12181755;19;20121;-82
2023/09/03 06:25:46;;;;;;;10.50;6.03;;;;;;;18.95;100.00;100716.19;12204541;19;20546;-83
2023/09/03 06:29:48;;;;;;;13.68;6.00;;;;;;;19.07;100.00;100708.31;12205892;19;20016;-82
2023/09/03 06:33:52;;;;;;;11.30;6.50;;;;;;;19.19;100.00;100716.38;12185902;19;20085;-82
2023/09/03 06:37:55;;;;;;;11.60;6.15;;;;;;;19.31;100.00;100724.44;12207189;19;20027;-82
2023/09/03 06:41:57;;;;;;;10.45;5.93;;;;;;;19.44;100.00;100732.19;12206464;19;20168;-82
2023/09/03 06:45:59;;;;;;;10.27;6.20;;;;;;;19.61;100.00;100739.38;12183703;19;20014;-82
2023/09/03 06:50:01;;;;;;;14.80;6.85;;;;;;;19.74;100.00;100738.78;12202679;19;21043;-82
2023/09/03 06:54:03;;;;;;;9.90;5.90;;;;;;;19.94;100.00;100752.63;12206854;19;20011;-81
2023/09/03 06:58:08;;;;;;;11.65;6.28;;;;;;;20.12;100.00;100744.69;12189589;19;20371;-82
2023/09/03 07:02:09;;;;;;;9.48;6.38;;;;;;;20.27;100.00;100745.41;12207942;19;20774;-83
2023/09/03 07:06:11;;;;;;;13.07;6.07;;;;;;;20.42;100.00;100750.03;12185287;19;20082;-83
2023/09/03 07:10:13;;;;;;;9.43;6.18;;;;;;;20.52;100.00;100760.34;12203786;19;20727;-83
2023/09/03 07:14:14;;;;;;;7.97;5.50;;;;;;;20.53;100.00;100764.00;12199430;19;20067;-83
2023/09/03 07:18:16;;;;;;;12.50;6.27;;;;;;;20.56;100.00;100766.22;12182953;19;20010;-82
2023/09/03 07:22:18;;;;;;;11.80;7.33;;;;;;;20.62;100.00;100776.25;12204781;19;20549;-85
2023/09/03 07:26:20;;;;;;;14.73;7.47;;;;;;;20.59;100.00;100772.06;12198153;19;20011;-81
2023/09/03 07:30:22;;;;;;;12.52;7.75;;;;;;;20.62;100.00;100770.63;12184752;19;20011;-82
2023/09/03 07:34:24;;;;;;;15.55;7.72;;;;;;;20.69;100.00;100783.16;12204903;19;20019;-82
2023/09/03 07:38:27;;;;;;;12.02;7.32;;;;;;;20.75;100.00;100803.56;12206562;19;20014;-82
2023/09/03 07:42:29;;;;;;;10.48;6.72;;;;;;;20.87;100.00;100795.59;12159874;19;20014;-82
2023/09/03 07:46:31;;;;;;;10.77;6.53;;;;;;;20.98;100.00;100795.50;12208923;19;20015;-82
2023/09/03 07:50:37;;;;;;;14.88;8.10;;;;;;;21.00;100.00;100796.88;12209558;19;20068;-81
2023/09/03 07:54:39;;;;;;;12.90;7.78;;;;;;;21.02;100.00;100814.22;12186114;19;20009;-82
2023/09/03 07:58:44;;;;;;;13.50;8.00;;;;;;;21.20;100.00;100803.41;12216664;19;20117;-82
2023/09/03 08:02:46;;;;;;;12.82;8.45;;;;;;;21.30;100.00;100804.13;12207019;19;20263;-82
2023/09/03 08:06:48;;;;;;;11.82;7.45;;;;;;;21.43;100.00;100812.97;12186028;19;20026;-83
2023/09/03 08:10:50;;;;;;;17.75;8.15;;;;;;;21.62;100.00;100813.84;12209142;19;20766;-82
2023/09/03 08:14:52;;;;;;;12.75;7.18;;;;;;;21.74;100.00;100814.25;12206603;19;20376;-82
2023/09/03 08:19:03;;;;;;;11.38;7.15;;;;;;;21.90;100.00;100817.72;12183477;19;20375;-83
2023/09/03 08:23:05;;;;;;;8.57;6.33;;;;;;;22.19;100.00;100822.38;12210059;19;20019;-83
2023/09/03 08:27:07;;;;;;;12.27;6.43;;;;;;;22.48;100.00;100819.41;12211709;19;20023;-83
2023/09/03 08:31:10;;;;;;;8.27;5.30;;;;;;;22.87;100.00;100815.38;12219843;19;20150;-83
2023/09/03 08:35:17;;;;;;;9.30;5.70;;;;;;;23.25;100.00;100801.22;12199134;19;20481;-83
2023/09/03 08:39:29;;;;;;;8.63;6.10;;;;;;;23.36;100.00;100813.97;12193099;19;20007;-85
2023/09/03 08:43:35;;;;;;;10.20;6.73;;;;;;;23.23;100.00;100820.38;12220288;19;20016;-82
2023/09/03 08:47:40;;;;;;;8.43;5.93;;;;;;;23.19;100.00;100826.63;12218127;19;20006;-82
2023/09/03 08:51:45;;;;;;;9.95;5.78;;;;;;;23.36;100.00;100828.03;12194609;19;20804;-83
2023/09/03 08:55:47;;;;;;;11.32;6.47;;;;;;;23.73;100.00;100829.81;12219532;19;20011;-83
2023/09/03 08:59:49;;;;;;;10.52;5.65;;;;;;;23.83;100.00;100831.59;12213989;19;20010;-81
2023/09/03 09:03:54;;;;;;;10.87;6.27;;;;;;;24.01;100.00;100830.63;12206981;19;20572;-82
2023/09/03 09:07:56;;;;;;;10.35;6.90;;;;;;;24.03;100.00;100828.31;12245350;19;20271;-83
2023/09/03 09:12:06;;;;;;;10.57;6.72;;;;;;;24.11;100.00;100835.19;12235271;19;20010;-83
2023/09/03 09:16:08;;;;;;;7.90;5.95;;;;;;;24.32;100.00;100836.38;12199358;19;20016;-83
2023/09/03 09:20:17;;;;;;;8.43;6.07;;;;;;;24.63;97.59;100830.06;12219049;19;20007;-84
2023/09/03 09:24:20;;;;;;;10.20;6.50;;;;;;;24.75;95.99;100816.22;12200091;19;20014;-82
2023/09/03 09:28:21;;;;;;;9.47;6.03;;;;;;;24.87;94.27;100824.09;12214376;19;20009;-82
2023/09/03 09:32:23;;;;;;;9.30;5.85;;;;;;;25.01;92.78;100822.00;12231798;19;20785;-84
2023/09/03 09:36:26;;;;;;;12.15;6.15;;;;;;;24.76;90.85;100809.44;12248652;19;20010;-82
2023/09/03 09:40:32;;;;;;;8.07;5.75;;;;;;;24.89;92.13;100809.66;12272050;19;20007;-83
2023/09/03 09:44:33;;;;;;;8.98;5.80;;;;;;;25.10;90.74;100824.06;12263317;19;20006;-85
2023/09/03 09:49:10;;;;;;;9.20;6.03;;;;;;;25.18;88.53;100823.31;12195774;19;20003;-84
2023/09/03 09:53:32;;;;;;;9.82;6.35;;;;;;;25.49;88.46;100822.44;12215638;19;20015;-84
2023/09/03 09:57:35;;;;;;;6.80;5.50;;;;;;;25.61;85.63;100817.00;12191295;19;20110;-82
2023/09/03 10:01:45;;;;;;;9.45;6.30;;;;;;;25.65;84.61;100815.22;12213915;19;21692;-85
2023/09/03 10:06:25;;;;;;;7.38;5.28;;;;;;;25.44;84.48;100812.16;12186628;19;20070;-86
2023/09/03 10:10:27;;;;;;;9.52;6.00;;;;;;;25.56;85.07;100817.19;12202280;19;20018;-84
2023/09/03 10:14:29;;;;;;;7.20;5.65;;;;;;;25.71;82.35;100821.53;12214209;19;20124;-84
2023/09/03 10:18:36;;;;;;;6.85;5.40;;;;;;;25.83;78.98;100827.41;12195618;19;20026;-83
2023/09/03 10:22:41;;;;;;;8.55;5.63;;;;;;;26.04;81.58;100827.63;12215481;19;20522;-83
2023/09/03 10:26:53;;;;;;;7.90;5.72;;;;;;;26.34;78.65;100829.47;12212564;19;20019;-83
2023/09/03 10:30:55;;;;;;;;;;;;;;;26.49;78.45;100824.50;12192071;19;20087;-82
2023/09/03 10:34:57;;;;;;;8.13;5.67;;;;;;;26.59;78.27;100830.69;12218008;19;19906;-83
2023/09/03 10:39:27;;;;;;;10.10;5.53;;;;;;;26.68;75.64;100825.03;12217392;19;20006;-83
2023/09/03 10:43:29;;;;;;;8.98;5.80;;;;;;;26.95;73.39;100831.47;12192523;19;20007;-83
2023/09/03 10:47:31;;;;;;;9.23;5.60;;;;;;;26.91;69.38;100827.66;12217096;19;20014;-83
2023/09/03 10:51:33;;;;;;;;;;;;;;;26.77;72.89;100830.66;12197413;19;20014;-84
2023/09/03 10:55:35;;;;;;;6.00;4.80;;;;;;;26.95;71.15;100822.97;12209548;19;19918;-84
2023/09/03 11:00:05;;;;;;;8.00;5.65;;;;;;;27.20;69.12;100824.94;12210461;19;20011;-83
2023/09/03 11:04:08;;;;;;;6.70;4.97;;;;;;;27.53;69.52;100827.16;12193861;19;20372;-83
2023/09/03 11:08:29;;;;;;;8.20;5.78;;;;;;;27.53;70.02;100827.16;12210957;19;20373;-84
2023/09/03 11:12:34;;;;;;;7.30;5.57;;;;;;;27.63;70.00;100832.44;12193908;19;20013;-81
2023/09/03 11:16:39;;;;;;;8.50;5.85;;;;;;;27.42;66.36;100831.53;12210585;19;20013;-82
2023/09/03 11:20:43;;;;;;;5.70;4.57;;;;;;;27.57;69.27;100830.97;12213793;19;20010;-84
2023/09/03 11:24:52;;;;;;;7.38;5.55;;;;;;;27.90;66.39;100830.31;12196102;19;20027;-86
2023/09/03 11:28:54;;;;;;;6.63;5.32;;;;;;;27.95;65.50;100828.13;12247273;19;20015;-84
2023/09/03 11:32:56;;;;;;;7.40;5.70;;;;;;;27.95;63.18;100819.63;12257294;19;20022;-86
2023/09/03 11:36:58;;;;;;;7.40;5.57;;;;;;;27.83;64.42;100824.38;12237690;19;20010;-82
2023/09/03 11:41:00;;;;;;;7.00;5.38;;;;;;;27.91;63.01;100815.00;12249038;19;20075;-83
2023/09/03 11:45:04;;;;;;;7.18;4.88;;;;;;;28.18;62.82;100822.97;12255874;19;20369;-83
2023/09/03 11:49:06;;;;;;;6.15;4.57;;;;;;;28.29;60.64;100820.56;12227233;19;20006;-83
2023/09/03 11:53:09;;;;;;;5.88;4.40;;;;;;;28.57;55.20;100820.03;12253320;19;20007;-84
2023/09/03 11:57:13;;;;;;;6.72;4.80;;;;;;;28.61;57.63;100807.63;12224025;19;20006;-83
2023/09/03 12:01:17;;;;;;;5.22;4.15;;;;;;;29.14;58.22;100812.81;12244234;19;20011;-83
2023/09/03 12:05:19;;;;;;;5.78;4.43;;;;;;;29.57;54.17;100812.28;12221949;19;20051;-83
2023/09/03 12:09:23;;;;;;;6.05;5.07;;;;;;;29.73;55.11;100818.09;12194298;19;20010;-84
2023/09/03 12:13:35;;;;;;;5.07;4.32;;;;;;;29.95;52.61;100811.94;12230584;19;20013;-84
2023/09/03 12:17:37;;;;;;;6.00;4.43;;;;;;;29.91;50.43;100813.00;12221189;19;20014;-84
2023/09/03 12:21:39;;;;;;;6.10;4.43;;;;;;;30.02;51.73;100810.50;12194077;19;20002;-84
2023/09/03 12:25:46;;;;;;;7.10;5.00;;;;;;;30.37;48.06;100817.34;12214262;19;20002;-85
2023/09/03 12:29:58;;;;;;;17.67;5.43;;;;;;;30.45;48.24;100809.00;12214709;19;20018;-85
2023/09/03 12:34:01;;;;;;;4.80;4.10;;;;;;;30.57;47.42;100808.97;12194871;19;20021;-83
2023/09/03 12:38:06;;;;;;;5.68;4.45;;;;;;;30.76;44.02;100811.97;12214321;19;20034;-85
2023/09/03 12:42:11;;;;;;;7.03;4.80;;;;;;;30.71;46.47;100811.41;12213939;19;20011;-83
2023/09/03 12:46:15;;;;;;;5.38;3.95;;;;;;;31.11;46.19;100811.31;12185299;19;19998;-84
2023/09/03 12:50:30;;;;;;;4.75;4.25;;;;;;;31.58;45.89;100804.84;12200600;19;20458;-84
2023/09/03 12:54:34;;;;;;;5.30;4.63;;;;;;;31.81;44.32;100805.00;12180635;19;20048;-84
2023/09/03 12:58:42;;;;;;;5.60;4.78;;;;;;;32.24;42.65;100800.31;12209017;19;20015;-84
2023/09/03 13:02:43;;;;;;;6.78;4.75;;;;;;;32.40;39.95;100805.97;12213119;19;20498;-80
2023/09/03 13:06:48;;;;;;;5.47;3.90;;;;;;;32.56;41.58;100795.34;12187853;19;20512;-84
2023/09/03 13:10:51;;;;;;;4.95;4.18;;;;;;;33.12;40.36;100792.00;12208129;19;20007;-85
2023/09/03 13:14:53;;;;;;;6.38;4.70;;;;;;;33.28;39.06;100791.03;12215771;19;20018;-87
2023/09/03 13:18:56;;;;;;;5.63;4.28;;;;;;;33.53;37.70;100782.94;12194727;19;20015;-84
2023/09/03 13:22:58;;;;;;;6.15;4.47;;;;;;;33.84;37.60;100789.53;12210979;19;20006;-85
2023/09/03 13:27:00;;;;;;;5.47;4.63;;;;;;;34.13;37.54;100790.81;12207764;19;20616;-84
2023/09/03 13:31:04;;;;;;;10.23;9.13;;;;;;;34.75;37.08;100779.78;12190971;19;20010;-85
2023/09/03 13:35:09;;;;;;;4.97;4.47;;;;;;;34.46;36.59;100787.19;12210074;19;20451;-84
2023/09/03 13:39:10;;;;;;;5.18;4.68;;;;;;;34.22;36.65;100789.31;12205678;19;20027;-86
2023/09/03 13:43:12;;;;;;;6.93;4.63;;;;;;;33.89;37.23;100792.09;12187378;19;20026;-87
2023/09/03 13:47:14;;;;;;;5.45;4.85;;;;;;;33.47;37.70;100799.56;12208384;19;20002;-84
2023/09/03 13:51:16;;;;;;;6.35;4.53;;;;;;;32.93;39.42;100800.59;12208896;19;20010;-85
2023/09/03 13:55:18;;;;;;;6.13;4.75;;;;;;;32.79;40.41;100803.97;12189758;19;20011;-84
2023/09/03 13:59:36;;;;;;;6.63;4.65;;;;;;;32.56;40.71;100792.50;12221043;19;20372;-85
2023/09/03 14:09:19;;;;;;;5.68;4.28;;;;;;;31.02;40.66;100776.50;12209633;19;20019;-85
2023/09/03 14:13:48;;;;;;;5.70;4.00;;;;;;;30.17;42.66;100778.50;12189686;19;20018;-86
2023/09/03 14:17:50;;;;;;;4.93;4.10;;;;;;;29.72;43.33;100773.84;12207993;19;20013;-85
2023/09/03 14:21:52;;;;;;;4.95;3.97;;;;;;;29.45;43.96;100781.06;12182360;19;20019;-84
2023/09/03 14:25:54;;;;;;;4.65;3.53;;;;;;;29.39;45.15;100777.59;12204592;19;20031;-84
2023/09/03 14:29:56;;;;;;;5.72;4.63;;;;;;;29.34;44.79;100782.69;12204597;19;20003;-85
2023/09/03 14:33:58;;;;;;;4.53;3.35;;;;;;;29.20;44.73;100783.84;12182617;19;20066;-85
2023/09/03 14:38:00;;;;;;;;;;;;;;;29.34;45.71;100789.19;12204793;19;20011;-84
2023/09/03 14:42:03;;;;;;;4.60;3.33;;;;;;;29.51;46.83;100786.13;12204628;19;19919;-85
2023/09/03 14:46:04;;;;;;;7.28;4.15;;;;;;;29.26;47.05;100790.13;12185177;19;20019;-85
2023/09/03 14:50:07;;;;;;;5.10;3.53;;;;;;;29.11;47.76;100787.97;12205453;19;20018;-84
2023/09/03 14:54:08;;;;;;;5.68;4.35;;;;;;;28.96;48.04;100787.44;12208319;19;20003;-85
2023/09/03 14:58:11;;;;;;;4.50;3.38;;;;;;;28.65;46.98;100784.28;12178069;19;20010;-84
2023/09/03 15:02:13;;;;;;;4.35;3.17;;;;;;;28.33;48.79;100796.03;12207963;19;20011;-84
2023/09/03 15:06:15;;;;;;;5.15;3.53;;;;;;;28.08;49.84;100794.19;12203867;19;20140;-85
2023/09/03 15:10:17;;;;;;;4.82;3.83;;;;;;;27.67;51.16;100805.09;12187916;19;20479;-85
2023/09/03 15:14:19;;;;;;;5.70;3.90;;;;;;;27.40;52.53;100799.94;12203899;19;20660;-85
2023/09/03 15:18:21;;;;;;;5.57;3.80;;;;;;;27.17;52.56;100800.16;12203830;19;20461;-85
2023/09/03 15:22:23;;;;;;;;;;;;;;;27.01;52.40;100804.69;12184563;19;20010;-85
2023/09/03 15:26:25;;;;;;;4.80;3.63;;;;;;;26.94;53.59;100805.19;12203300;19;19911;-86
2023/09/03 15:30:32;;;;;;;6.32;3.55;;;;;;;26.73;53.10;100807.06;12183821;19;20010;-85
2023/09/03 15:34:34;;;;;;;5.40;3.45;;;;;;;26.56;53.72;100810.72;12202315;19;20014;-86
2023/09/03 15:38:36;;;;;;;5.47;3.38;;;;;;;26.36;52.70;100812.22;12201704;19;20006;-85
2023/09/03 15:42:39;;;;;;;5.68;3.20;;;;;;;26.24;53.94;100807.22;12181565;19;20014;-85
2023/09/03 15:46:41;;;;;;;4.72;3.33;;;;;;;26.14;53.00;100797.06;12203258;19;20458;-84
2023/09/03 15:50:43;;;;;;;5.15;3.47;;;;;;;26.08;55.23;100806.03;12205134;19;20007;-85
2023/09/03 15:54:45;;;;;;;5.00;3.40;;;;;;;25.93;55.86;100812.97;12186022;19;20006;-84
2023/09/03 16:03:39;;;;;;;4.07;3.05;;;;;;;25.65;56.95;100804.75;12175863;19;20046;-86
2023/09/03 16:08:11;;;;;;;5.07;3.15;;;;;;;25.62;56.69;100804.59;12196426;19;20006;-84
2023/09/03 16:12:28;;;;;;;4.22;2.65;;;;;;;25.57;56.78;100810.38;12175312;19;20007;-83
2023/09/03 16:16:29;;;;;;;5.28;3.03;;;;;;;25.41;57.48;100821.28;12191608;19;20062;-84
2023/09/03 16:20:33;;;;;;;6.50;3.50;;;;;;;25.31;58.46;100811.09;12192292;19;20030;-85
2023/09/03 16:24:35;;;;;;;5.20;2.88;;;;;;;25.22;59.21;100813.03;12179363;19;20006;-84
2023/09/03 16:28:36;;;;;;;4.90;2.45;;;;;;;25.10;61.06;100812.78;12193670;19;20681;-84
2023/09/03 16:32:41;;;;;;;4.28;2.72;;;;;;;24.98;61.80;100805.72;12194282;19;20693;-85
2023/09/03 16:36:44;;;;;;;4.75;3.25;;;;;;;24.89;61.99;100815.31;12176665;19;20023;-87
2023/09/03 16:40:46;;;;;;;5.38;2.80;;;;;;;24.69;64.92;100800.59;12188645;19;20098;-86
2023/09/03 16:44:49;;;;;;;5.22;2.53;;;;;;;24.57;66.22;100808.81;12200663;19;20006;-86
2023/09/03 16:48:51;;;;;;;6.30;2.85;;;;;;;24.43;67.54;100806.03;12181428;19;20007;-84
2023/09/03 16:52:52;;;;;;;5.23;3.00;;;;;;;24.27;66.82;100799.06;12212700;19;20010;-84
2023/09/03 16:56:55;;;;;;;6.47;3.00;;;;;;;24.09;67.65;100801.72;12212184;19;20251;-85
2023/09/03 17:00:57;;;;;;;8.38;3.60;;;;;;;23.91;71.10;100810.31;12191584;19;20027;-85
2023/09/03 17:04:59;;;;;;;8.38;3.38;;;;;;;23.69;71.50;100806.25;12212401;19;20010;-86
2023/09/03 17:09:03;;;;;;;4.03;2.83;;;;;;;23.54;73.82;100807.41;12209665;19;20038;-89
2023/09/03 17:13:04;;;;;;;6.97;3.50;;;;;;;23.36;76.48;100808.34;12193177;19;20035;-85
2023/09/03 17:17:06;;;;;;;5.27;2.93;;;;;;;23.17;78.38;100811.22;12208258;19;20853;-85
2023/09/03 17:21:08;;;;;;;5.57;3.53;;;;;;;22.98;79.67;100808.47;12208103;19;20003;-85
2023/09/03 17:25:10;;;;;;;7.75;4.05;;;;;;;22.80;81.86;100803.72;12186318;19;20462;-85
2023/09/03 17:29:12;;;;;;;9.77;3.50;;;;;;;22.57;83.46;100803.53;12205194;19;20502;-86
2023/09/03 17:33:14;;;;;;;8.60;4.17;;;;;;;22.39;85.01;100798.78;12205160;19;20015;-85
2023/09/03 17:37:15;;;;;;;8.53;3.80;;;;;;;22.17;86.12;100805.03;12183004;19;20007;-84
2023/09/03 17:41:17;;;;;;;4.80;3.23;;;;;;;21.98;88.42;100807.78;12199278;19;20002;-85
2023/09/03 17:45:19;;;;;;;5.53;3.50;;;;;;;21.75;90.61;100813.16;12204738;19;20010;-83
2023/09/03 17:49:21;;;;;;;8.32;3.20;;;;;;;21.54;92.46;100809.75;12181914;19;20002;-86
2023/09/03 17:53:23;;;;;;;7.80;3.60;;;;;;;21.31;94.12;100808.59;12205520;19;20009;-86
2023/09/03 17:57:24;;;;;;;8.83;3.67;;;;;;;21.14;95.43;100806.25;12176199;19;20380;-85
2023/09/03 18:01:26;;;;;;;9.20;4.50;;;;;;;20.95;97.54;100813.75;12214216;19;19999;-85
2023/09/03 18:05:28;;;;;;;8.23;3.87;;;;;;;20.77;96.85;100812.50;12220069;19;20782;-86
2023/09/03 18:09:30;;;;;;;9.27;3.67;;;;;;;20.64;97.09;100819.63;12185021;19;20023;-84
2023/09/03 18:13:32;;;;;;;13.27;3.20;;;;;;;20.52;98.47;100818.28;12201878;19;20485;-85
2023/09/03 18:17:33;;;;;;;5.53;3.17;;;;;;;20.39;99.42;100829.00;12199542;19;20315;-86
2023/09/03 18:21:35;;;;;;;6.20;3.57;;;;;;;20.31;98.90;100825.97;12174040;19;20007;-85
2023/09/03 18:25:37;;;;;;;10.63;3.87;;;;;;;20.22;98.86;100836.97;12199660;19;20473;-85
2023/09/03 18:29:39;;;;;;;5.60;3.70;;;;;;;20.14;97.77;100832.00;12198302;19;20506;-84
2023/09/03 18:33:41;;;;;;;5.57;3.63;;;;;;;20.10;98.28;100836.47;12176752;19;20081;-85
2023/09/03 18:37:43;;;;;;;6.67;3.70;;;;;;;20.06;96.76;100844.63;12194102;19;20010;-85
2023/09/03 18:41:44;;;;;;;8.23;3.13;;;;;;;20.03;95.88;100836.78;12198621;19;20017;-84
2023/09/03 18:45:46;;;;;;;10.00;4.07;;;;;;;19.97;98.10;100844.38;12177615;19;20002;-84
2023/09/03 18:49:48;;;;;;;8.18;4.22;;;;;;;19.94;97.69;100850.53;12195289;19;20078;-84